createdAt,value
2023-02-11T00:01:24.471Z,35.43
2023-02-11T00:03:52.246Z,32.53
2023-02-11T00:06:19.085Z,33.20
2023-02-11T00:08:46.284Z,28.47
2023-02-11T00:11:15.936Z,32.37
2023-02-11T00:13:44.300Z,30.87
2023-02-11T00:16:15.145Z,29.67
2023-02-11T00:18:42.052Z,25.70
2023-02-11T00:21:18.359Z,24.93
2023-02-11T00:23:46.152Z,24.17
2023-02-11T00:26:20.476Z,28.10
2023-02-11T00:28:48.774Z,22.83
2023-02-11T00:31:17.363Z,23.20
2023-02-11T00:33:44.900Z,22.27
2023-02-11T00:36:23.909Z,20.73
2023-02-11T00:38:52.611Z,24.40
2023-02-11T00:41:20.213Z,24.60
2023-02-11T00:43:47.781Z,20.53
2023-02-11T00:46:15.861Z,22.57
2023-02-11T00:48:43.016Z,20.83
2023-02-11T00:51:10.419Z,21.07
2023-02-11T00:53:37.384Z,23.17
2023-02-11T00:56:04.774Z,23.90
2023-02-11T00:58:31.695Z,20.93
2023-02-11T01:00:58.584Z,21.10
2023-02-11T01:03:25.782Z,26.23
2023-02-11T01:05:53.137Z,25.70
2023-02-11T01:08:20.109Z,20.80
2023-02-11T01:11:01.331Z,26.53
2023-02-11T01:13:29.342Z,27.03
2023-02-11T01:15:56.766Z,24.67
2023-02-11T01:18:24.760Z,28.63
2023-02-11T01:20:52.644Z,25.70
2023-02-11T01:23:19.910Z,30.20
2023-02-11T01:25:46.797Z,28.03
2023-02-11T01:28:23.239Z,32.67
2023-02-11T01:30:50.557Z,25.33
2023-02-11T01:33:17.908Z,31.50
2023-02-11T02:30:08.410Z,33.20
2023-02-11T02:33:16.752Z,29.47
2023-02-11T02:36:07.470Z,35.07
2023-02-11T02:38:53.356Z,39.70
2023-02-11T02:41:25.205Z,39.00
2023-02-11T02:43:52.945Z,35.40
2023-02-11T04:51:03.170Z,31.30
2023-02-11T04:53:29.964Z,35.50
2023-02-11T04:55:56.836Z,31.57
2023-02-11T04:58:24.516Z,34.33
2023-02-11T05:00:51.512Z,29.33
2023-02-11T05:03:18.729Z,34.93
2023-02-11T06:27:10.184Z,45.97
2023-02-11T06:29:37.071Z,41.93
2023-02-11T06:32:04.553Z,41.00
2023-02-11T06:34:31.488Z,45.67
2023-02-11T06:36:58.433Z,48.53
2023-02-11T06:39:25.380Z,46.53
2023-02-11T06:41:52.281Z,42.03
2023-02-11T06:44:19.210Z,44.63
2023-02-11T07:16:52.929Z,36.97
2023-02-11T07:19:20.149Z,38.17
2023-02-11T07:21:48.883Z,39.03
2023-02-11T07:24:15.867Z,40.05
2023-02-11T07:26:42.668Z,51.43
2023-02-11T07:29:09.568Z,46.30
2023-02-11T07:31:36.563Z,42.50
2023-02-11T07:34:03.659Z,41.07
2023-02-11T07:36:32.211Z,45.67
2023-02-11T07:39:00.510Z,41.37
2023-02-11T07:41:27.861Z,45.50
2023-02-11T07:43:55.404Z,37.73
2023-02-11T07:46:27.574Z,34.57
2023-02-11T07:48:55.439Z,41.33
2023-02-11T07:51:25.379Z,39.07
2023-02-11T07:53:53.610Z,38.27
2023-02-11T07:56:21.374Z,30.33
2023-02-11T07:58:49.039Z,37.60
2023-02-11T08:01:25.559Z,39.13
2023-02-11T08:03:53.106Z,32.50
2023-02-11T08:06:21.739Z,32.03
2023-02-11T08:08:48.785Z,57.37
2023-02-11T08:11:18.276Z,32.63
2023-02-11T08:13:45.580Z,31.38
2023-02-11T08:16:41.701Z,38.53
2023-02-11T08:19:13.154Z,38.40
2023-02-11T08:21:40.772Z,33.60
2023-02-11T08:24:08.011Z,40.73
2023-02-11T08:26:35.249Z,37.73
2023-02-11T08:29:13.300Z,34.73
2023-02-11T08:31:42.709Z,35.30
2023-02-11T08:36:39.651Z,34.75
2023-02-11T08:39:19.239Z,46.90
2023-02-11T08:41:51.994Z,32.03
2023-02-11T08:44:20.072Z,32.37
2023-02-11T08:46:47.377Z,30.67
2023-02-11T08:49:15.280Z,32.30
2023-02-11T08:51:42.180Z,31.27
2023-02-11T08:54:10.199Z,35.90
2023-02-11T08:56:38.834Z,30.00
2023-02-11T08:59:07.243Z,25.15
2023-02-11T09:01:34.567Z,29.50
2023-02-11T09:04:01.723Z,32.13
2023-02-11T09:06:29.427Z,25.40
2023-02-11T09:08:57.994Z,28.63
2023-02-11T09:11:32.069Z,28.83
2023-02-11T09:13:59.204Z,30.73
2023-02-11T09:16:28.855Z,25.60
2023-02-11T09:19:00.491Z,26.50
2023-02-11T09:21:28.144Z,28.43
2023-02-11T09:23:55.365Z,23.37
2023-02-11T09:26:25.114Z,20.77
2023-02-11T09:28:52.157Z,22.63
2023-02-11T09:31:22.302Z,23.77
2023-02-11T09:33:52.206Z,23.80
2023-02-11T09:36:24.047Z,25.53
2023-02-11T09:38:51.948Z,24.97
2023-02-11T09:41:24.861Z,23.80
2023-02-11T09:44:05.095Z,25.07
2023-02-11T09:46:41.970Z,24.60
2023-02-11T09:49:20.020Z,26.57
2023-02-11T09:52:01.837Z,21.93
2023-02-11T09:54:36.000Z,19.52
2023-02-11T09:57:03.064Z,24.13
2023-02-11T09:59:30.646Z,24.90
2023-02-11T10:02:02.937Z,26.10
2023-02-11T10:04:45.272Z,24.33
2023-02-11T10:08:10.055Z,23.37
2023-02-11T10:10:46.014Z,22.30
2023-02-11T10:13:45.886Z,22.27
2023-02-11T10:16:45.545Z,19.47
2023-02-11T10:19:33.820Z,21.93
2023-02-11T10:22:12.430Z,21.60
2023-02-11T10:24:43.566Z,18.85
2023-02-11T10:27:20.672Z,19.50
2023-02-11T10:29:57.100Z,17.93
2023-02-11T10:32:32.988Z,16.77
2023-02-11T10:35:10.627Z,22.03
2023-02-11T10:37:37.539Z,21.00
2023-02-11T10:40:06.947Z,20.90
2023-02-11T10:42:35.508Z,18.35
2023-02-11T10:45:07.525Z,17.98
2023-02-11T10:47:38.058Z,20.30
2023-02-11T10:50:29.529Z,17.40
2023-02-11T10:53:12.758Z,21.70
2023-02-11T10:55:49.508Z,21.13
2023-02-11T10:58:29.364Z,17.53
2023-02-11T11:00:57.645Z,19.50
2023-02-11T11:03:27.289Z,17.47
2023-02-11T11:06:02.877Z,18.10
2023-02-11T11:08:46.045Z,26.37
2023-02-11T11:11:18.885Z,99.03
2023-02-11T11:14:00.823Z,112.67
2023-02-11T11:16:35.761Z,170.07
2023-02-11T11:19:08.611Z,20.60
2023-02-11T11:22:07.590Z,34.50
2023-02-11T11:24:44.507Z,17.88
2023-02-11T11:27:19.741Z,17.33
2023-02-11T11:29:50.024Z,17.80
2023-02-11T11:32:22.545Z,16.37
2023-02-11T11:34:55.793Z,18.63
2023-02-11T11:37:39.053Z,17.07
2023-02-11T11:40:33.116Z,18.37
2023-02-11T11:43:25.378Z,18.40
2023-02-11T11:45:57.989Z,13.03
2023-02-11T11:48:51.989Z,14.53
2023-02-11T11:51:19.444Z,14.00
2023-02-11T11:53:51.428Z,14.73
2023-02-11T11:56:27.408Z,16.27
2023-02-11T11:58:54.734Z,16.60
2023-02-11T12:01:39.493Z,15.80
2023-02-11T12:04:43.057Z,16.83
2023-02-11T12:07:32.773Z,17.23
2023-02-11T12:10:14.896Z,16.63
2023-02-11T12:12:53.788Z,14.27
2023-02-11T12:15:44.399Z,12.93
2023-02-11T12:18:33.055Z,11.17
2023-02-11T12:21:18.597Z,11.20
2023-02-11T12:24:17.435Z,15.27
2023-02-11T12:26:50.074Z,12.00
2023-02-11T12:29:38.405Z,13.43
2023-02-11T12:32:58.355Z,13.73
2023-02-11T12:35:46.984Z,15.63
2023-02-11T12:38:38.194Z,14.50
2023-02-11T12:41:44.732Z,14.27
2023-02-11T12:44:34.351Z,14.37
2023-02-11T12:47:35.531Z,14.27
2023-02-11T12:50:05.494Z,17.17
2023-02-11T12:52:55.812Z,12.57
2023-02-11T12:55:29.428Z,18.53
2023-02-11T12:58:00.941Z,15.90
2023-02-11T13:00:40.553Z,12.97
2023-02-11T13:03:18.471Z,16.33
2023-02-11T13:05:51.531Z,14.67
2023-02-11T13:08:42.098Z,16.20
2023-02-11T13:11:15.354Z,21.03
2023-02-11T13:13:45.247Z,13.53
2023-02-11T13:16:37.356Z,12.47
2023-02-11T13:19:13.311Z,15.23
2023-02-11T13:21:40.150Z,12.87
2023-02-11T13:24:15.600Z,13.23
2023-02-11T13:27:00.478Z,12.57
2023-02-11T13:29:36.676Z,13.50
2023-02-11T13:32:13.398Z,14.10
2023-02-11T13:34:59.086Z,11.80
2023-02-11T13:37:34.618Z,14.23
2023-02-11T13:40:04.039Z,12.27
2023-02-11T13:42:34.342Z,12.90
2023-02-11T13:45:01.595Z,11.17
2023-02-11T13:47:37.713Z,13.13
2023-02-11T13:50:08.391Z,13.93
2023-02-11T13:52:38.952Z,14.73
2023-02-11T13:55:14.539Z,14.47
2023-02-11T13:57:42.040Z,18.27
2023-02-11T14:00:45.923Z,15.37
2023-02-11T14:03:31.164Z,18.13
2023-02-11T14:06:29.057Z,11.73
2023-02-11T14:09:14.105Z,13.53
2023-02-11T14:11:43.460Z,11.97
2023-02-11T14:14:29.176Z,13.90
2023-02-11T14:17:02.002Z,14.47
2023-02-11T14:19:37.619Z,12.60
2023-02-11T14:22:13.664Z,14.77
2023-02-11T14:24:49.274Z,12.43
2023-02-11T14:27:35.359Z,16.73
2023-02-11T14:30:26.373Z,12.47
2023-02-11T14:33:20.620Z,14.87
2023-02-11T14:36:09.037Z,14.23
2023-02-11T14:38:38.637Z,15.73
2023-02-11T14:41:11.083Z,13.83
2023-02-11T14:43:47.066Z,16.07
2023-02-11T14:46:17.114Z,18.93
2023-02-11T14:48:48.946Z,16.60
2023-02-11T14:51:27.256Z,16.03
2023-02-11T14:54:00.847Z,17.97
2023-02-11T14:56:32.090Z,16.47
2023-02-11T14:58:58.920Z,18.40
2023-02-11T15:01:37.958Z,15.10
2023-02-11T15:04:06.964Z,20.35
2023-02-11T15:06:37.978Z,14.45
2023-02-11T15:09:15.050Z,18.47
2023-02-11T15:11:44.913Z,20.73
2023-02-11T15:14:22.798Z,23.73
2023-02-11T15:16:53.585Z,27.70
2023-02-11T15:19:34.285Z,27.77
2023-02-11T15:22:04.282Z,24.83
2023-02-11T15:24:33.631Z,23.67
2023-02-11T15:27:08.426Z,22.00
2023-02-11T15:29:43.656Z,31.20
2023-02-11T15:32:10.568Z,31.97
2023-02-11T15:34:37.699Z,33.70
2023-02-11T15:37:13.159Z,29.10
2023-02-11T15:39:42.343Z,27.20
2023-02-11T15:42:19.974Z,30.65
2023-02-11T15:44:54.262Z,40.87
2023-02-11T15:47:23.644Z,47.10
2023-02-11T15:49:51.646Z,42.43
2023-02-11T15:52:25.785Z,52.77
2023-02-11T15:54:54.203Z,67.77
2023-02-11T15:57:22.745Z,44.33
2023-02-11T15:59:53.152Z,134.27
2023-02-11T16:02:31.102Z,56.43
2023-02-11T16:05:01.632Z,48.57
2023-02-11T16:07:45.121Z,44.17
2023-02-11T16:10:26.516Z,48.20
2023-02-11T16:13:06.629Z,38.93
2023-02-11T16:15:39.887Z,49.10
2023-02-11T16:18:38.657Z,56.47
2023-02-11T16:21:07.969Z,57.40
2023-02-11T16:23:38.141Z,70.07
2023-02-11T16:26:10.910Z,59.37
2023-02-11T16:28:38.486Z,50.40
2023-02-11T16:31:06.497Z,71.27
2023-02-11T16:33:33.577Z,43.27
2023-02-11T16:36:02.311Z,84.93
2023-02-11T16:38:30.585Z,50.42
2023-02-11T16:40:57.502Z,45.63
2023-02-11T16:43:24.418Z,97.90
2023-02-11T16:45:51.478Z,57.90
2023-02-11T16:48:20.357Z,58.83
2023-02-11T16:50:52.862Z,52.10
2023-02-11T16:53:24.199Z,60.30
2023-02-11T16:55:52.956Z,50.70
2023-02-11T16:58:19.946Z,35.33
2023-02-11T17:00:47.975Z,33.03
2023-02-11T17:03:23.127Z,41.70
2023-02-11T17:05:55.658Z,44.77
2023-02-11T17:08:23.416Z,56.07
2023-02-11T17:10:50.909Z,54.20
2023-02-11T17:13:18.023Z,63.50
2023-02-11T17:15:44.930Z,57.77
2023-02-11T17:18:14.977Z,62.03
2023-02-11T17:20:42.016Z,58.90
2023-02-11T17:23:09.288Z,52.70
2023-02-11T17:25:38.881Z,56.77
2023-02-11T17:30:33.379Z,63.77
2023-02-11T17:33:00.375Z,59.00
2023-02-11T17:35:27.574Z,60.33
2023-02-11T17:37:54.746Z,66.27
2023-02-11T17:40:22.259Z,71.90
2023-02-11T17:42:50.300Z,58.17
2023-02-11T17:45:17.298Z,69.80
2023-02-11T17:47:44.215Z,77.17
2023-02-11T17:50:11.422Z,69.60
2023-02-11T17:52:38.411Z,66.33
2023-02-11T17:55:06.497Z,58.60
2023-02-11T17:57:34.541Z,51.27
2023-02-11T18:00:01.596Z,41.60
2023-02-11T18:02:28.421Z,43.50
2023-02-11T18:04:57.703Z,41.30
2023-02-11T18:07:25.966Z,60.13
2023-02-11T18:09:53.067Z,71.40
2023-02-11T18:12:26.386Z,36.93
2023-02-11T18:14:56.851Z,30.90
2023-02-11T18:17:24.848Z,32.23
2023-02-11T18:19:55.946Z,35.03
2023-02-11T18:22:23.289Z,28.47
2023-02-11T18:24:54.157Z,23.50
2023-02-11T18:27:23.509Z,24.87
2023-02-11T18:29:50.756Z,22.88
2023-02-11T18:32:17.588Z,26.50
2023-02-11T18:34:44.475Z,27.43
2023-02-11T18:37:13.473Z,25.80
2023-02-11T18:39:40.753Z,23.67
2023-02-11T18:42:07.704Z,30.40
2023-02-11T18:44:34.705Z,39.20
2023-02-11T18:47:01.556Z,36.07
2023-02-11T18:49:28.579Z,35.30
2023-02-11T18:51:55.493Z,35.73
2023-02-11T18:54:23.771Z,43.30
2023-02-11T18:56:50.673Z,59.67
2023-02-11T18:59:17.574Z,56.83
2023-02-11T19:01:47.075Z,53.60
2023-02-11T19:06:49.677Z,48.07
2023-02-11T19:09:19.620Z,47.90
2023-02-11T19:11:54.369Z,51.43
2023-02-11T19:14:26.812Z,39.27
2023-02-11T19:16:57.129Z,42.57
2023-02-11T19:19:26.134Z,44.17
2023-02-11T19:21:53.107Z,40.17
2023-02-11T19:24:20.454Z,58.53
2023-02-11T19:26:48.510Z,51.57
2023-02-11T19:29:16.021Z,50.87
2023-02-11T19:31:45.418Z,35.80
2023-02-11T19:36:42.023Z,37.33
2023-02-11T19:39:09.898Z,39.43
2023-02-11T19:41:37.195Z,40.77
2023-02-11T19:44:05.337Z,38.40
2023-02-11T19:46:35.111Z,33.80
2023-02-11T19:49:03.295Z,36.20
2023-02-11T19:51:31.021Z,36.40
2023-02-11T19:53:58.439Z,34.50
2023-02-11T19:56:25.571Z,34.40
2023-02-11T19:58:52.535Z,21.97
2023-02-11T20:01:21.952Z,18.97
2023-02-11T20:06:20.283Z,19.40
2023-02-11T20:08:47.124Z,19.93
2023-02-11T20:11:17.481Z,19.20
2023-02-11T20:13:44.522Z,25.33
2023-02-11T20:16:19.833Z,24.87
2023-02-11T20:18:48.302Z,29.53
2023-02-11T20:21:17.767Z,31.37
2023-02-11T20:26:16.367Z,26.98
2023-02-11T20:28:43.800Z,26.03
2023-02-11T20:31:12.074Z,27.63
2023-02-11T20:33:40.165Z,27.80
2023-02-11T20:36:10.672Z,30.20
2023-02-11T20:38:37.972Z,35.53
2023-02-11T20:41:09.786Z,39.03
2023-02-11T20:43:38.059Z,40.07
2023-02-11T20:46:06.223Z,44.47
2023-02-11T20:48:34.263Z,43.63
2023-02-11T20:51:10.415Z,36.53
2023-02-11T20:53:39.037Z,28.47
2023-02-11T20:56:08.709Z,41.33
2023-02-11T21:01:14.203Z,32.87
2023-02-11T21:03:44.027Z,33.40
2023-02-11T21:06:11.715Z,36.43
2023-02-11T21:08:38.725Z,32.30
2023-02-11T21:11:09.037Z,28.83
2023-02-11T21:13:37.584Z,24.53
2023-02-11T21:16:05.391Z,24.07
2023-02-11T21:18:32.572Z,23.50
2023-02-11T21:20:59.517Z,18.50
2023-02-11T21:23:26.742Z,18.47
2023-02-11T21:25:54.533Z,16.20
2023-02-11T21:28:26.565Z,15.43
2023-02-11T21:30:55.229Z,18.53
2023-02-11T21:33:23.560Z,14.23
2023-02-11T21:35:56.032Z,16.23
2023-02-11T21:38:23.790Z,14.93
2023-02-11T21:40:51.273Z,17.57
2023-02-11T21:43:18.932Z,15.83
2023-02-11T21:45:48.104Z,14.00
2023-02-11T21:48:16.648Z,15.80
2023-02-11T21:50:46.608Z,17.97
2023-02-11T21:53:14.259Z,17.13
2023-02-11T21:55:41.773Z,21.83
2023-02-11T21:58:09.666Z,17.10
2023-02-11T22:00:36.734Z,9.67
2023-02-11T22:03:03.778Z,12.00
2023-02-11T22:05:30.756Z,11.53
2023-02-11T22:07:57.832Z,13.30
2023-02-11T22:10:25.089Z,10.47
2023-02-11T22:12:51.927Z,10.17
2023-02-11T22:15:18.851Z,11.23
2023-02-11T22:17:45.772Z,12.77
2023-02-11T22:20:12.839Z,13.57
2023-02-11T22:22:39.764Z,9.67
2023-02-11T22:25:07.107Z,12.90
2023-02-11T22:27:34.002Z,14.47
2023-02-11T22:30:00.955Z,15.73
2023-02-11T22:32:27.892Z,17.00
2023-02-11T22:34:55.666Z,12.23
2023-02-11T22:37:22.619Z,13.13
2023-02-11T22:39:49.465Z,16.77
2023-02-11T22:42:16.334Z,16.80
2023-02-11T22:44:43.126Z,15.67
2023-02-11T22:47:10.186Z,16.80
2023-02-11T22:49:37.124Z,17.03
2023-02-11T22:52:04.522Z,14.30
2023-02-11T22:54:31.961Z,11.63
2023-02-11T22:56:58.849Z,12.80
2023-02-11T22:59:25.714Z,18.33
2023-02-11T23:01:52.751Z,15.23
2023-02-11T23:04:19.775Z,12.67
2023-02-11T23:06:47.925Z,14.40
2023-02-11T23:09:15.068Z,13.67
2023-02-11T23:11:42.068Z,17.83
2023-02-11T23:14:12.216Z,19.43
2023-02-11T23:16:39.536Z,16.10
2023-02-11T23:19:08.907Z,18.03
2023-02-11T23:21:39.069Z,16.55
2023-02-11T23:24:15.715Z,19.83
2023-02-11T23:26:43.771Z,13.53
2023-02-11T23:29:11.646Z,17.97
2023-02-11T23:31:40.879Z,14.23
2023-02-11T23:34:08.905Z,15.88
2023-02-11T23:36:36.279Z,20.30
2023-02-11T23:39:03.591Z,22.77
2023-02-11T23:41:31.262Z,24.30
2023-02-11T23:43:59.478Z,22.40
2023-02-11T23:46:27.286Z,24.20
2023-02-11T23:48:54.248Z,19.93
2023-02-11T23:51:22.247Z,18.17
2023-02-11T23:53:49.830Z,17.77
2023-02-11T23:56:19.594Z,16.57
2023-02-11T23:58:52.915Z,18.57
